Terminal Aerodrome Forecast
Issued by NWS

Home | Current Version | Previous Version | Text Only | Print | Product List | Glossary On
Versions: 1 2 3 4 5 6 7 8 9 10 11 12 13 14 15 16 17
000
FTUS41 KBGM 270533
TAFRME
TAF
KRME 270533Z 2706/2806 29003KT P6SM OVC040
      TEMPO 2710/2714 -SHRASN OVC015
     FM271400 30012KT P6SM -SHRA OVC035
     FM280300 31005KT P6SM OVC050=

USA.gov is the U.S. government's official web portal to all federal, state and local government web resources and services.